createdAt,value
2019-01-13T00:00:12.280Z,1.9
2019-01-13T00:03:10.294Z,1.9
2019-01-13T00:06:10.376Z,2.5
2019-01-13T00:09:10.389Z,2.2
2019-01-13T00:12:12.278Z,2
2019-01-13T00:15:10.445Z,1.7
2019-01-13T00:18:10.870Z,1.6
2019-01-13T00:21:10.572Z,1.6
2019-01-13T00:24:10.393Z,1.6
2019-01-13T00:27:10.744Z,1.5
2019-01-13T00:30:10.855Z,1.5
2019-01-13T00:33:10.483Z,1.6
2019-01-13T00:36:11.600Z,1.5
2019-01-13T00:39:10.505Z,1.5
2019-01-13T00:42:10.232Z,1.5
2019-01-13T00:45:10.212Z,1.5
2019-01-13T00:48:10.385Z,1.5
2019-01-13T00:51:10.259Z,1.5
2019-01-13T00:54:10.306Z,1.5
2019-01-13T00:57:12.156Z,1.5
2019-01-13T01:00:10.432Z,1.6
2019-01-13T01:03:10.859Z,1.5
2019-01-13T01:06:10.563Z,1.6
2019-01-13T01:09:10.542Z,1.5
2019-01-13T01:12:10.562Z,1.4
2019-01-13T01:15:10.662Z,1.5
2019-01-13T01:18:10.360Z,1.5
2019-01-13T01:21:10.574Z,1.6
2019-01-13T01:24:12.230Z,1.5
2019-01-13T01:27:10.633Z,1.4
2019-01-13T01:30:10.425Z,1.4
2019-01-13T01:33:10.441Z,1.4
2019-01-13T01:36:10.402Z,1.4
2019-01-13T01:39:11.132Z,1.4
2019-01-13T01:42:10.830Z,1.5
2019-01-13T01:45:10.469Z,1.4
2019-01-13T01:48:11.102Z,1.5
2019-01-13T01:51:10.304Z,1.5
2019-01-13T01:54:10.385Z,1.5
2019-01-13T01:57:10.398Z,1.4
2019-01-13T02:00:10.297Z,1.5
2019-01-13T02:03:10.434Z,1.4
2019-01-13T02:06:10.781Z,1.4
2019-01-13T02:09:10.693Z,1.4
2019-01-13T02:12:10.421Z,1.4
2019-01-13T02:15:10.226Z,1.9
2019-01-13T02:18:10.215Z,1.6
2019-01-13T02:21:10.454Z,1.5
2019-01-13T02:24:10.644Z,1.4
2019-01-13T02:27:10.400Z,1.6
2019-01-13T02:30:10.755Z,1.5
2019-01-13T02:33:10.411Z,1.4
2019-01-13T02:36:10.660Z,1.4
2019-01-13T02:39:10.796Z,1.4
2019-01-13T02:42:10.799Z,1.5
2019-01-13T02:45:10.411Z,1.4
2019-01-13T02:48:10.691Z,1.4
2019-01-13T02:51:10.683Z,1.6
2019-01-13T02:54:10.558Z,1.7
2019-01-13T02:57:10.383Z,1.5
2019-01-13T03:00:10.248Z,1.4
2019-01-13T03:03:10.533Z,1.4
2019-01-13T03:06:10.693Z,1.3
2019-01-13T03:09:10.394Z,1.4
2019-01-13T03:12:10.344Z,1.3
2019-01-13T03:15:10.307Z,1.7
2019-01-13T03:18:10.306Z,1.6
2019-01-13T03:21:10.475Z,1.5
2019-01-13T03:24:10.529Z,1.4
2019-01-13T03:27:10.415Z,1.4
2019-01-13T03:30:10.717Z,1.4
2019-01-13T03:33:10.848Z,1.4
2019-01-13T03:36:10.626Z,1.5
2019-01-13T03:39:12.287Z,1.5
2019-01-13T03:42:10.368Z,1.4
2019-01-13T03:45:10.498Z,1.3
2019-01-13T03:48:10.521Z,1.4
2019-01-13T03:51:10.979Z,1.3
2019-01-13T03:54:10.432Z,1.3
2019-01-13T03:57:10.482Z,1.3
2019-01-13T04:00:10.357Z,1.3
2019-01-13T04:03:10.192Z,1.6
2019-01-13T04:06:10.220Z,1.5
2019-01-13T04:09:10.600Z,1.4
2019-01-13T04:12:10.593Z,1.4
2019-01-13T04:15:10.720Z,1.3
2019-01-13T04:18:10.802Z,1.2
2019-01-13T04:21:10.647Z,1.4
2019-01-13T04:24:12.179Z,1.4
2019-01-13T04:27:10.337Z,1.3
2019-01-13T04:30:10.762Z,1.3
2019-01-13T04:33:10.474Z,1.2
2019-01-13T04:36:10.269Z,1.3
2019-01-13T04:39:10.334Z,1.4
2019-01-13T04:42:10.500Z,1.3
2019-01-13T04:45:10.525Z,1.3
2019-01-13T04:48:10.556Z,1.3
2019-01-13T04:51:10.229Z,1.2
2019-01-13T04:54:10.274Z,1.3
2019-01-13T04:57:10.271Z,1.3
2019-01-13T05:00:10.441Z,1.2
2019-01-13T05:03:10.421Z,1.2
2019-01-13T05:06:10.645Z,1.3
2019-01-13T05:09:10.146Z,1.4
2019-01-13T05:12:10.132Z,1.2
2019-01-13T05:15:10.649Z,1.2
2019-01-13T05:18:10.654Z,1.3
2019-01-13T05:21:10.873Z,1.2
2019-01-13T05:24:10.528Z,1.2
2019-01-13T05:27:10.258Z,1.1
2019-01-13T05:30:10.355Z,1.1
2019-01-13T05:33:10.257Z,1.1
2019-01-13T05:36:11.503Z,1.1
2019-01-13T05:39:11.043Z,1.1
2019-01-13T05:42:10.946Z,1.4
2019-01-13T05:45:10.647Z,1.2
2019-01-13T05:48:10.903Z,1.2
2019-01-13T05:51:10.576Z,1.2
2019-01-13T05:54:10.730Z,1.1
2019-01-13T05:57:10.533Z,1.2
2019-01-13T06:00:10.466Z,1.2
2019-01-13T06:03:10.329Z,1.2
2019-01-13T06:06:10.146Z,1.2
2019-01-13T06:09:10.128Z,1.3
2019-01-13T06:12:10.524Z,1.2
2019-01-13T06:15:10.291Z,1.2
2019-01-13T06:18:10.361Z,1.1
2019-01-13T06:21:11.276Z,1.1
2019-01-13T06:24:10.273Z,1
2019-01-13T06:27:10.283Z,1
2019-01-13T06:30:10.235Z,1
2019-01-13T06:33:10.181Z,1
2019-01-13T06:36:12.210Z,1
2019-01-13T06:39:10.107Z,1
2019-01-13T06:42:10.200Z,1
2019-01-13T06:45:10.210Z,1.2
2019-01-13T06:48:10.393Z,6.1
2019-01-13T06:51:10.166Z,6.2
2019-01-13T06:54:10.229Z,4.9
2019-01-13T06:57:10.168Z,4.2
2019-01-13T07:00:10.320Z,2.7
2019-01-13T07:03:10.963Z,2.4
2019-01-13T07:06:10.517Z,2.8
2019-01-13T07:09:10.500Z,5.4
2019-01-13T07:12:10.584Z,5
2019-01-13T07:15:10.339Z,3.7
2019-01-13T07:18:10.646Z,2.6
2019-01-13T07:21:10.445Z,2.4
2019-01-13T07:24:10.582Z,3.5
2019-01-13T07:27:12.265Z,2.5
2019-01-13T07:30:10.809Z,2
2019-01-13T07:33:10.378Z,2.9
2019-01-13T07:36:10.224Z,2.5
2019-01-13T07:39:10.452Z,2
2019-01-13T07:42:12.098Z,2.2
2019-01-13T07:45:10.177Z,2.6
2019-01-13T07:48:10.312Z,2
2019-01-13T07:51:10.562Z,1.6
2019-01-13T07:54:10.625Z,1.5
2019-01-13T07:57:10.325Z,2.3
2019-01-13T08:00:10.238Z,2.7
2019-01-13T08:03:10.245Z,2
2019-01-13T08:06:10.369Z,2.3
2019-01-13T08:09:10.553Z,1.7
2019-01-13T08:12:10.475Z,1.6
2019-01-13T08:15:11.435Z,2.8
2019-01-13T08:18:10.416Z,2.1
2019-01-13T08:21:10.569Z,1.7
2019-01-13T08:24:10.197Z,1.5
2019-01-13T08:27:10.200Z,1.5
2019-01-13T08:30:10.526Z,1.4
2019-01-13T08:33:10.240Z,1.3
2019-01-13T08:36:10.300Z,1.3
2019-01-13T08:39:10.261Z,1.3
2019-01-13T08:42:10.325Z,1.3
2019-01-13T08:45:10.596Z,1.1
2019-01-13T08:48:10.569Z,1.3
2019-01-13T08:51:10.447Z,1.3
2019-01-13T08:54:10.536Z,1.3
2019-01-13T08:57:10.400Z,2.2
2019-01-13T09:00:10.421Z,1.7
2019-01-13T09:03:10.570Z,1.4
2019-01-13T09:06:10.156Z,1.2
2019-01-13T09:09:10.275Z,1.2
2019-01-13T09:12:10.208Z,1.2
2019-01-13T09:15:10.265Z,1.2
2019-01-13T09:18:10.942Z,1.1
2019-01-13T09:21:12.217Z,1.1
2019-01-13T09:24:12.153Z,1.2
2019-01-13T09:27:10.527Z,1.2
2019-01-13T09:30:10.393Z,1.2
2019-01-13T09:33:10.665Z,1.4
2019-01-13T09:36:10.383Z,1.4
2019-01-13T09:39:10.273Z,1.7
2019-01-13T09:42:10.054Z,5.8
2019-01-13T09:45:11.138Z,4.2
2019-01-13T09:48:10.201Z,3.2
2019-01-13T09:51:10.305Z,2.4
2019-01-13T09:54:10.096Z,6.5
2019-01-13T09:57:10.502Z,4.9
2019-01-13T10:00:10.058Z,7.6
2019-01-13T10:03:10.478Z,5.3
2019-01-13T10:06:10.168Z,4.8
2019-01-13T10:09:10.121Z,6.7
2019-01-13T10:12:10.204Z,5.7
2019-01-13T10:15:10.234Z,7.2
2019-01-13T10:18:10.131Z,5
2019-01-13T10:21:10.201Z,3.4
2019-01-13T10:24:10.309Z,3.4
2019-01-13T10:27:10.170Z,4.4
2019-01-13T10:30:10.416Z,3.7
2019-01-13T10:33:10.299Z,2.9
2019-01-13T10:36:10.363Z,4.8
2019-01-13T10:39:10.503Z,3.5
2019-01-13T10:42:10.485Z,2.7
2019-01-13T10:45:10.632Z,2.9
2019-01-13T10:48:10.548Z,2.9
2019-01-13T10:51:10.408Z,2.1
2019-01-13T10:58:17.454Z,4.5
2019-01-13T11:03:59.635Z,3.3
2019-01-13T11:07:00.711Z,2.8
2019-01-13T11:10:00.371Z,2.9
2019-01-13T11:12:59.523Z,2.9
2019-01-13T11:18:39.049Z,3
2019-01-13T11:21:39.244Z,2.8
2019-01-13T11:24:38.932Z,2.5
2019-01-13T11:27:38.699Z,2.3
2019-01-13T11:30:39.099Z,1.8
2019-01-13T11:33:38.849Z,1.5
2019-01-13T11:36:38.881Z,1.9
2019-01-13T11:39:41.368Z,1.6
2019-01-13T11:42:38.778Z,1.4
2019-01-13T11:45:39.412Z,1.4
2019-01-13T11:48:39.257Z,1.5
2019-01-13T11:51:38.862Z,1.7
2019-01-13T11:54:40.693Z,2
2019-01-13T11:57:39.052Z,2.3
2019-01-13T12:00:39.014Z,3.1
2019-01-13T12:03:38.976Z,2.9
2019-01-13T12:06:39.174Z,2.2
2019-01-13T12:09:38.566Z,1.7
2019-01-13T12:12:38.500Z,1.5
2019-01-13T12:15:39.013Z,3.4
2019-01-13T12:18:41.708Z,3.9
2019-01-13T12:21:38.489Z,3.2
2019-01-13T12:24:38.848Z,2.8
2019-01-13T12:27:38.688Z,2.6
2019-01-13T12:30:38.701Z,2.2
2019-01-13T12:33:38.631Z,3.4
2019-01-13T12:36:38.686Z,2.8
2019-01-13T12:39:38.674Z,2.1
2019-01-13T12:42:38.514Z,2.2
2019-01-13T12:45:38.902Z,1.9
2019-01-13T12:48:38.613Z,2.1
2019-01-13T12:51:39.015Z,1.7
2019-01-13T12:54:38.885Z,1.8
2019-01-13T12:57:39.751Z,1.5
2019-01-13T13:00:38.818Z,1.3
2019-01-13T13:03:38.885Z,1.6
2019-01-13T13:06:39.883Z,1.4
2019-01-13T13:09:38.953Z,3.1
2019-01-13T13:12:39.117Z,2.8
2019-01-13T13:15:38.788Z,2.3
2019-01-13T13:18:38.972Z,2.8
2019-01-13T13:21:38.731Z,2.7
2019-01-13T13:24:39.233Z,2.5
2019-01-13T13:27:39.354Z,2
2019-01-13T13:30:39.212Z,1.8
2019-01-13T13:33:39.466Z,2
2019-01-13T13:36:39.162Z,1.7
2019-01-13T13:39:39.802Z,1.5
2019-01-13T13:42:38.906Z,2.3
2019-01-13T13:45:38.683Z,2.1
2019-01-13T13:48:38.628Z,1.8
2019-01-13T13:51:38.939Z,2.3
2019-01-13T13:54:38.453Z,1.9
2019-01-13T13:57:38.609Z,2
2019-01-13T14:00:38.617Z,1.7
2019-01-13T14:03:38.370Z,1.8
2019-01-13T14:06:38.960Z,2.4
2019-01-13T14:09:38.440Z,1.9
2019-01-13T14:12:38.245Z,3
2019-01-13T14:15:38.766Z,4.1
2019-01-13T14:18:38.557Z,4.2
2019-01-13T14:21:38.500Z,4.2
2019-01-13T14:24:38.477Z,4.3
2019-01-13T14:27:38.354Z,3.4
2019-01-13T14:30:38.394Z,2.7
2019-01-13T14:33:38.758Z,2.8
2019-01-13T14:36:39.656Z,2.1
2019-01-13T14:39:39.538Z,5.8
2019-01-13T14:42:38.204Z,5.8
2019-01-13T14:45:38.310Z,3.9
2019-01-13T14:48:38.419Z,4.2
2019-01-13T14:51:38.237Z,4.6
2019-01-13T14:54:38.925Z,4.1
2019-01-13T14:57:38.850Z,4.3
2019-01-13T15:00:38.932Z,4.1
2019-01-13T15:03:39.076Z,3.3
2019-01-13T15:06:38.563Z,3.2
2019-01-13T15:09:39.290Z,2.4
2019-01-13T15:12:38.810Z,2.3
2019-01-13T15:15:38.494Z,2
2019-01-13T15:18:38.552Z,2.3
2019-01-13T15:21:38.561Z,2.4
2019-01-13T15:24:38.794Z,1.9
2019-01-13T15:27:38.326Z,2.6
2019-01-13T15:30:38.341Z,2
2019-01-13T15:33:38.347Z,2.3
2019-01-13T15:36:38.408Z,2.3
2019-01-13T15:39:38.593Z,2
2019-01-13T15:42:38.188Z,2.3
2019-01-13T15:45:38.248Z,3
2019-01-13T15:48:38.393Z,2.7
2019-01-13T15:51:38.563Z,2.9
2019-01-13T15:54:38.383Z,4.1
2019-01-13T15:57:38.467Z,4.4
2019-01-13T16:00:38.477Z,3.2
2019-01-13T16:03:38.391Z,2.8
2019-01-13T16:06:39.561Z,3.6
2019-01-13T16:09:38.719Z,3.2
2019-01-13T16:12:38.844Z,2.7
2019-01-13T16:15:38.648Z,3.2
2019-01-13T16:18:38.969Z,2.5
2019-01-13T16:21:38.552Z,2.7
2019-01-13T16:24:39.683Z,2.2
2019-01-13T16:27:38.502Z,2.3
2019-01-13T16:30:38.991Z,2.3
2019-01-13T16:33:38.499Z,2.2
2019-01-13T16:36:38.603Z,2.4
2019-01-13T16:39:38.557Z,1.7
2019-01-13T16:42:38.804Z,2.1
2019-01-13T16:45:38.499Z,2
2019-01-13T16:48:39.110Z,1.6
2019-01-13T16:51:38.791Z,1.4
2019-01-13T16:54:39.805Z,2
2019-01-13T16:57:38.548Z,4.7
2019-01-13T17:00:38.496Z,6.4
2019-01-13T17:03:38.408Z,5.4
2019-01-13T17:06:38.466Z,4.3
2019-01-13T17:09:38.538Z,3.4
2019-01-13T17:12:38.393Z,5
2019-01-13T17:15:38.663Z,4.7
2019-01-13T17:18:38.291Z,3.6
2019-01-13T17:21:38.268Z,3
2019-01-13T17:24:38.441Z,2.9
2019-01-13T17:27:38.207Z,3.4
2019-01-13T17:30:39.294Z,2.5
2019-01-13T17:33:38.868Z,2.1
2019-01-13T17:36:38.345Z,2.8
2019-01-13T17:39:38.505Z,3.8
2019-01-13T17:42:38.731Z,3.9
2019-01-13T17:45:38.603Z,5.6
2019-01-13T17:48:38.367Z,3.6
2019-01-13T17:51:38.852Z,3.1
2019-01-13T17:54:38.854Z,2.7
2019-01-13T17:57:39.196Z,4.1
2019-01-13T18:00:38.491Z,2.8
2019-01-13T18:03:39.498Z,3.2
2019-01-13T18:06:38.755Z,3.5
2019-01-13T18:09:38.440Z,3.3
2019-01-13T18:12:38.244Z,3.2
2019-01-13T18:15:38.650Z,4.1
2019-01-13T18:18:38.607Z,3.3
2019-01-13T18:21:38.195Z,3.6
2019-01-13T18:24:38.930Z,2.7
2019-01-13T18:27:38.509Z,4.9
2019-01-13T18:30:39.220Z,3.7
2019-01-13T18:33:38.263Z,2.5
2019-01-13T18:36:38.292Z,2.4
2019-01-13T18:39:38.257Z,2
2019-01-13T18:42:38.527Z,2.9
2019-01-13T18:45:39.381Z,3.5
2019-01-13T18:48:38.943Z,3
2019-01-13T18:51:38.593Z,2.6
2019-01-13T18:54:38.458Z,2.6
2019-01-13T18:57:38.363Z,4.3
2019-01-13T19:00:38.570Z,3.2
2019-01-13T19:03:38.402Z,3.4
2019-01-13T19:06:38.582Z,2.4
2019-01-13T19:09:38.565Z,2
2019-01-13T19:12:38.596Z,1.8
2019-01-13T19:15:38.453Z,1.9
2019-01-13T19:18:38.728Z,1.6
2019-01-13T19:21:38.995Z,1.6
2019-01-13T19:24:38.500Z,1.4
2019-01-13T19:27:39.239Z,1.6
2019-01-13T19:30:39.128Z,2.1
2019-01-13T19:33:38.414Z,2.7
2019-01-13T19:36:38.575Z,3
2019-01-13T19:39:38.169Z,2.2
2019-01-13T19:42:38.622Z,2
2019-01-13T19:45:38.463Z,1.7
2019-01-13T19:48:38.451Z,1.7
2019-01-13T19:51:39.295Z,2
2019-01-13T19:54:38.825Z,1.9
2019-01-13T19:57:40.048Z,2.4
2019-01-13T20:00:38.760Z,2.6
2019-01-13T20:03:38.639Z,3.1
2019-01-13T20:06:38.364Z,3
2019-01-13T20:09:39.184Z,3.4
2019-01-13T20:12:38.626Z,2.4
2019-01-13T20:15:38.253Z,2.4
2019-01-13T20:18:38.973Z,2.5
2019-01-13T20:21:38.239Z,2.2
2019-01-13T20:24:38.588Z,2.7
2019-01-13T20:27:40.095Z,2.1
2019-01-13T20:30:38.352Z,2.5
2019-01-13T20:33:38.321Z,2.2
2019-01-13T20:36:38.333Z,1.9
2019-01-13T20:39:38.385Z,1.6
2019-01-13T20:42:38.299Z,1.5
2019-01-13T20:45:38.217Z,1.5
2019-01-13T20:48:38.345Z,3.4
2019-01-13T20:51:38.364Z,2.5
2019-01-13T20:54:38.795Z,2.2
2019-01-13T20:57:38.186Z,1.8
2019-01-13T21:00:38.178Z,3.4
2019-01-13T21:03:38.220Z,2.4
2019-01-13T21:06:38.502Z,3.3
2019-01-13T21:09:38.144Z,3.4
2019-01-13T21:12:39.477Z,3.6
2019-01-13T21:15:38.924Z,3.4
2019-01-13T21:18:40.275Z,2.8
2019-01-13T21:21:38.864Z,2.6
2019-01-13T21:24:38.403Z,2.8
2019-01-13T21:27:38.881Z,3.1
2019-01-13T21:30:38.320Z,3.6
2019-01-13T21:33:38.399Z,2.5
2019-01-13T21:36:38.764Z,2.2
2019-01-13T21:39:38.770Z,2.4
2019-01-13T21:42:38.288Z,1.9
2019-01-13T21:45:39.048Z,1.6
2019-01-13T21:48:38.356Z,1.9
2019-01-13T21:51:38.807Z,4.8
2019-01-13T21:54:38.348Z,3.5
2019-01-13T21:57:38.715Z,3.4
2019-01-13T22:00:38.790Z,2.4
2019-01-13T22:03:38.721Z,2.9
2019-01-13T22:06:38.475Z,2.1
2019-01-13T22:09:38.386Z,2.3
2019-01-13T22:12:38.749Z,2.1
2019-01-13T22:15:39.217Z,1.7
2019-01-13T22:18:38.728Z,1.7
2019-01-13T22:21:38.748Z,1.9
2019-01-13T22:24:38.188Z,2
2019-01-13T22:27:38.239Z,1.8
2019-01-13T22:30:38.259Z,1.6
2019-01-13T22:33:38.190Z,1.4
2019-01-13T22:36:38.428Z,1.5
2019-01-13T22:39:38.372Z,1.7
2019-01-13T22:42:38.958Z,2.1
2019-01-13T22:45:38.352Z,1.7
2019-01-13T22:48:38.328Z,1.4
2019-01-13T22:51:38.529Z,1.6
2019-01-13T22:54:38.629Z,1.7
2019-01-13T22:57:38.649Z,1.7
2019-01-13T23:00:38.356Z,1.5
2019-01-13T23:03:38.425Z,1.5
2019-01-13T23:06:38.474Z,1.4
2019-01-13T23:09:38.214Z,1.3
2019-01-13T23:12:38.210Z,1.2
2019-01-13T23:15:38.078Z,1.2
2019-01-13T23:18:38.198Z,1.2
2019-01-13T23:21:38.119Z,1.2
2019-01-13T23:24:38.365Z,1.3
2019-01-13T23:27:38.767Z,1.3
2019-01-13T23:30:38.424Z,1.2
2019-01-13T23:33:38.576Z,1.3
2019-01-13T23:36:38.141Z,1.2
2019-01-13T23:39:38.242Z,1.2
2019-01-13T23:42:39.050Z,1.3
2019-01-13T23:45:39.435Z,1.2
2019-01-13T23:48:38.435Z,1.4
2019-01-13T23:51:38.547Z,1.3
2019-01-13T23:54:38.763Z,1.2
2019-01-13T23:57:39.093Z,1.2
